createdAt,value
2019-04-27T03:01:21.530Z,11.40
2019-04-27T03:03:50.795Z,12.10
2019-04-27T03:06:20.244Z,11.12
2019-04-27T03:08:53.883Z,13.03
2019-04-27T03:11:23.443Z,14.03
2019-04-27T03:13:54.104Z,12.35
2019-04-27T03:16:25.241Z,13.10
2019-04-27T03:19:18.192Z,14.13
2019-04-27T03:22:01.360Z,11.08
2019-04-27T03:24:49.790Z,10.78
2019-04-27T03:27:20.868Z,10.82
2019-04-27T03:29:50.381Z,9.55
2019-04-27T03:32:22.580Z,10.38
2019-04-27T03:34:52.369Z,11.80
2019-04-27T03:37:22.187Z,11.30
2019-04-27T03:39:51.459Z,10.63
2019-04-27T03:42:21.191Z,12.33
2019-04-27T03:44:50.559Z,13.83
2019-04-27T03:47:20.146Z,13.70
2019-04-27T03:49:50.703Z,13.25
2019-04-27T03:52:34.607Z,12.70
2019-04-27T03:55:05.656Z,13.53
2019-04-27T03:57:36.561Z,15.48
2019-04-27T04:00:10.555Z,15.80
2019-04-27T04:02:40.640Z,15.13
2019-04-27T04:05:10.161Z,14.55
2019-04-27T04:07:40.389Z,14.95
2019-04-27T04:10:10.814Z,12.03
2019-04-27T04:12:50.109Z,15.55
2019-04-27T04:15:36.259Z,13.28
2019-04-27T04:18:05.595Z,12.53
2019-04-27T04:20:35.832Z,12.00
2019-04-27T04:23:05.136Z,11.18
2019-04-27T04:25:34.683Z,12.60
2019-04-27T04:28:03.940Z,11.80
2019-04-27T04:30:33.484Z,11.08
2019-04-27T04:33:02.820Z,9.80
2019-04-27T04:35:33.330Z,10.00
2019-04-27T04:38:03.062Z,9.13
2019-04-27T04:40:50.303Z,8.83
2019-04-27T04:43:29.309Z,9.63
2019-04-27T04:45:59.791Z,11.88
2019-04-27T04:48:30.247Z,11.70
2019-04-27T04:51:00.133Z,12.35
2019-04-27T04:53:29.515Z,11.25
2019-04-27T04:56:00.336Z,12.40
2019-04-27T04:58:29.783Z,11.90
2019-04-27T05:00:59.566Z,11.45
2019-04-27T05:03:30.462Z,11.50
2019-04-27T05:05:59.731Z,9.83
2019-04-27T05:08:29.275Z,12.75
2019-04-27T05:10:59.686Z,11.53
2019-04-27T05:13:29.432Z,12.80
2019-04-27T05:15:58.989Z,11.80
2019-04-27T05:18:29.311Z,11.25
2019-04-27T05:21:15.490Z,10.32
2019-04-27T05:23:44.743Z,11.08
2019-04-27T05:26:14.014Z,11.38
2019-04-27T05:28:43.286Z,10.72
2019-04-27T05:31:12.554Z,13.15
2019-04-27T05:33:42.051Z,12.55
2019-04-27T05:36:11.315Z,11.20
2019-04-27T05:38:45.998Z,12.45
2019-04-27T05:41:11.534Z,11.80
2019-04-27T05:43:58.996Z,11.65
2019-04-27T05:46:46.098Z,11.28
2019-04-27T05:49:32.143Z,11.03
2019-04-27T05:52:01.410Z,11.45
2019-04-27T05:54:30.687Z,11.28
2019-04-27T05:56:59.955Z,10.82
2019-04-27T05:59:29.907Z,10.50
2019-04-27T06:01:59.545Z,10.75
2019-04-27T06:04:29.857Z,7.67
2019-04-27T06:07:01.085Z,10.45
2019-04-27T06:09:30.099Z,11.08
2019-04-27T06:11:59.366Z,9.50
2019-04-27T06:14:29.244Z,9.63
2019-04-27T06:16:59.631Z,9.03
2019-04-27T06:19:29.994Z,8.13
2019-04-27T06:22:01.281Z,9.00
2019-04-27T06:24:30.222Z,8.68
2019-04-27T06:26:59.780Z,8.58
2019-04-27T06:29:29.396Z,8.75
2019-04-27T06:31:59.686Z,8.35
2019-04-27T06:34:30.997Z,9.23
2019-04-27T06:37:00.161Z,8.40
2019-04-27T06:39:29.936Z,7.75
2019-04-27T06:42:01.254Z,8.08
2019-04-27T06:44:31.211Z,7.42
2019-04-27T06:47:00.470Z,6.97
2019-04-27T06:49:29.737Z,7.17
2019-04-27T06:51:59.010Z,7.00
2019-04-27T06:54:28.867Z,6.30
2019-04-27T06:56:59.251Z,5.65
2019-04-27T06:59:28.982Z,5.62
2019-04-27T07:02:00.530Z,4.42
2019-04-27T07:04:29.511Z,3.83
2019-04-27T07:06:59.426Z,3.20
2019-04-27T07:09:29.771Z,3.87
2019-04-27T07:11:59.378Z,2.83
2019-04-27T07:14:29.502Z,2.60
2019-04-27T07:16:59.230Z,2.58
2019-04-27T07:19:29.967Z,2.62
2019-04-27T07:21:59.614Z,2.60
2019-04-27T07:24:29.355Z,2.25
2019-04-27T07:26:59.619Z,2.10
2019-04-27T07:29:29.386Z,2.17
2019-04-27T07:31:59.666Z,2.67
2019-04-27T07:34:30.470Z,2.80
2019-04-27T07:36:59.948Z,2.62
2019-04-27T07:39:29.531Z,2.90
2019-04-27T07:41:58.823Z,2.65
2019-04-27T07:44:41.546Z,2.58
2019-04-27T07:47:30.754Z,2.87
2019-04-27T07:50:01.353Z,2.55
2019-04-27T07:52:31.336Z,2.62
2019-04-27T07:55:00.594Z,2.83
2019-04-27T07:57:29.854Z,2.70
2019-04-27T07:59:59.686Z,2.72
2019-04-27T08:02:29.163Z,2.45
2019-04-27T08:04:59.567Z,2.58
2019-04-27T08:07:29.223Z,3.08
2019-04-27T08:10:01.048Z,3.42
2019-04-27T08:12:29.506Z,3.30
2019-04-27T08:15:00.080Z,3.45
2019-04-27T08:17:30.304Z,3.55
2019-04-27T08:19:59.699Z,3.12
2019-04-27T08:22:29.189Z,3.20
2019-04-27T08:24:59.471Z,3.62
2019-04-27T08:27:33.455Z,3.00
2019-04-27T08:30:04.649Z,3.05
2019-04-27T08:32:35.811Z,3.37
2019-04-27T08:35:06.778Z,3.87
2019-04-27T08:37:36.047Z,3.22
2019-04-27T08:40:06.755Z,3.22
2019-04-27T08:42:36.094Z,2.83
2019-04-27T08:45:06.602Z,3.27
2019-04-27T08:47:35.867Z,2.85
2019-04-27T08:50:05.266Z,2.70
2019-04-27T08:52:34.539Z,3.02
2019-04-27T08:55:09.597Z,3.00
2019-04-27T08:57:39.207Z,3.50
2019-04-27T09:00:09.566Z,3.50
2019-04-27T09:02:46.502Z,3.37
2019-04-27T09:05:10.491Z,3.22
2019-04-27T09:07:41.437Z,2.90
2019-04-27T09:10:15.454Z,3.67
2019-04-27T09:13:02.584Z,3.27
2019-04-27T09:15:36.687Z,3.50
2019-04-27T09:18:05.967Z,2.83
2019-04-27T09:20:38.859Z,2.75
2019-04-27T09:23:09.719Z,3.17
2019-04-27T09:25:39.719Z,3.33
2019-04-27T09:28:09.070Z,2.92
2019-04-27T09:30:39.272Z,2.98
2019-04-27T09:33:08.678Z,2.47
2019-04-27T09:35:37.945Z,2.90
2019-04-27T09:38:07.220Z,2.40
2019-04-27T09:40:36.703Z,2.00
2019-04-27T09:43:07.530Z,1.87
2019-04-27T09:45:37.238Z,2.35
2019-04-27T09:48:07.850Z,2.00
2019-04-27T09:50:37.126Z,2.30
2019-04-27T09:53:06.521Z,2.00
2019-04-27T09:55:36.890Z,1.77
2019-04-27T09:58:06.235Z,2.30
2019-04-27T10:00:36.434Z,2.30
2019-04-27T10:03:06.618Z,2.27
2019-04-27T10:05:36.686Z,2.55
2019-04-27T10:08:06.382Z,2.22
2019-04-27T10:10:37.144Z,2.27
2019-04-27T10:13:07.119Z,2.27
2019-04-27T10:15:36.406Z,2.10
2019-04-27T10:18:06.095Z,2.22
2019-04-27T10:20:39.005Z,2.60
2019-04-27T10:23:06.699Z,2.25
2019-04-27T10:25:37.482Z,2.25
2019-04-27T10:28:06.974Z,2.30
2019-04-27T10:30:36.211Z,2.12
2019-04-27T10:33:07.728Z,2.50
2019-04-27T10:35:36.488Z,2.05
2019-04-27T10:38:05.782Z,2.37
2019-04-27T10:40:35.054Z,2.42
2019-04-27T10:43:06.161Z,2.45
2019-04-27T10:45:35.763Z,2.40
2019-04-27T10:48:06.398Z,2.12
2019-04-27T10:50:36.605Z,2.30
2019-04-27T10:53:06.905Z,2.47
2019-04-27T10:55:36.590Z,2.27
2019-04-27T10:58:06.066Z,2.92
2019-04-27T11:00:39.815Z,3.08
2019-04-27T11:03:09.303Z,2.77
2019-04-27T11:05:57.000Z,2.80
2019-04-27T11:08:26.327Z,3.30
2019-04-27T11:10:56.408Z,2.47
2019-04-27T11:13:27.019Z,2.37
2019-04-27T11:15:56.291Z,3.02
2019-04-27T11:18:25.918Z,2.95
2019-04-27T11:20:56.751Z,2.87
2019-04-27T11:23:26.295Z,2.75
2019-04-27T11:25:55.551Z,2.98
2019-04-27T11:28:25.859Z,2.85
2019-04-27T11:30:55.160Z,2.58
2019-04-27T11:33:26.242Z,2.62
2019-04-27T11:35:59.939Z,2.70
2019-04-27T11:38:29.226Z,2.60
2019-04-27T11:40:58.482Z,2.30
2019-04-27T11:43:28.726Z,2.72
2019-04-27T11:45:57.994Z,2.58
2019-04-27T11:48:27.251Z,2.70
2019-04-27T11:50:56.519Z,2.30
2019-04-27T11:53:26.311Z,2.70
2019-04-27T11:55:55.622Z,3.05
2019-04-27T11:58:26.494Z,2.42
2019-04-27T12:00:55.827Z,2.27
2019-04-27T12:03:25.155Z,2.20
2019-04-27T12:05:59.486Z,2.10
2019-04-27T12:08:26.448Z,2.55
2019-04-27T12:10:55.847Z,2.55
2019-04-27T12:13:26.179Z,2.90
2019-04-27T12:15:55.446Z,2.70
2019-04-27T12:18:24.714Z,2.60
2019-04-27T12:20:55.675Z,2.52
2019-04-27T12:23:35.087Z,2.10
2019-04-27T12:25:56.400Z,2.35
2019-04-27T12:28:32.810Z,3.02
2019-04-27T12:31:04.678Z,2.47
2019-04-27T12:33:35.696Z,2.12
2019-04-27T12:36:06.739Z,1.80
2019-04-27T12:38:36.576Z,1.72
2019-04-27T12:41:06.798Z,1.50
2019-04-27T12:43:37.472Z,1.50
2019-04-27T12:46:06.877Z,1.37
2019-04-27T12:48:37.462Z,1.40
2019-04-27T12:51:07.034Z,1.40
2019-04-27T12:53:50.580Z,1.62
2019-04-27T12:56:16.694Z,1.87
2019-04-27T12:58:53.650Z,1.70
2019-04-27T13:01:25.840Z,1.45
2019-04-27T13:03:58.885Z,1.47
2019-04-27T13:06:26.419Z,1.85
2019-04-27T13:08:55.862Z,1.52
2019-04-27T13:11:26.708Z,1.50
2019-04-27T13:13:57.669Z,1.30
2019-04-27T13:16:30.284Z,1.10
2019-04-27T13:18:58.950Z,0.88
2019-04-27T13:21:28.218Z,0.88
2019-04-27T13:24:04.287Z,0.70
2019-04-27T13:26:28.668Z,0.82
2019-04-27T13:28:58.898Z,0.70
2019-04-27T13:31:28.170Z,1.00
2019-04-27T13:33:57.438Z,0.80
2019-04-27T13:36:26.734Z,0.70
2019-04-27T13:38:57.011Z,0.70
2019-04-27T13:41:32.585Z,1.00
2019-04-27T13:43:57.530Z,0.90
2019-04-27T13:46:28.515Z,0.60
2019-04-27T13:48:59.439Z,0.60
2019-04-27T13:51:45.103Z,0.57
2019-04-27T13:54:23.828Z,0.40
2019-04-27T13:56:46.179Z,0.88
2019-04-27T13:59:16.530Z,0.70
2019-04-27T14:01:45.866Z,0.85
2019-04-27T14:04:15.126Z,0.88
2019-04-27T14:06:44.395Z,1.05
2019-04-27T14:09:13.718Z,1.20
2019-04-27T14:11:43.060Z,1.05
2019-04-27T14:14:12.318Z,1.62
2019-04-27T14:16:43.783Z,1.50
2019-04-27T14:19:12.766Z,1.50
2019-04-27T14:21:42.039Z,1.30
2019-04-27T14:24:11.295Z,1.20
2019-04-27T14:26:40.575Z,1.20
2019-04-27T14:29:09.831Z,1.02
2019-04-27T14:31:39.646Z,1.30
2019-04-27T14:34:10.015Z,1.70
2019-04-27T14:36:40.567Z,1.55
2019-04-27T14:39:11.735Z,1.50
2019-04-27T14:41:42.785Z,1.25
2019-04-27T14:44:12.053Z,1.12
2019-04-27T14:46:41.320Z,1.05
2019-04-27T14:49:10.591Z,1.90
2019-04-27T14:51:40.173Z,1.90
2019-04-27T14:54:09.503Z,1.65
2019-04-27T14:56:38.983Z,1.80
2019-04-27T14:59:08.323Z,1.20
2019-04-27T15:01:39.923Z,1.67
2019-04-27T15:04:08.545Z,2.15
2019-04-27T15:06:37.807Z,1.62
2019-04-27T15:09:07.511Z,1.40
2019-04-27T15:11:36.780Z,1.70
2019-04-27T15:14:06.281Z,1.92
2019-04-27T15:16:37.926Z,1.42
2019-04-27T15:19:08.143Z,2.30
2019-04-27T15:21:38.905Z,2.02
2019-04-27T15:24:09.978Z,2.50
2019-04-27T15:26:39.575Z,2.08
2019-04-27T15:29:12.122Z,2.22
2019-04-27T15:31:43.090Z,2.35
2019-04-27T15:34:16.979Z,2.50
2019-04-27T15:37:02.460Z,2.30
2019-04-27T15:39:48.959Z,2.05
2019-04-27T15:42:21.951Z,1.82
2019-04-27T15:44:51.227Z,2.27
2019-04-27T15:47:20.500Z,2.30
2019-04-27T15:49:51.118Z,2.25
2019-04-27T15:52:20.791Z,2.17
2019-04-27T15:54:50.275Z,2.10
2019-04-27T15:57:20.848Z,1.85
2019-04-27T15:59:50.183Z,2.20
2019-04-27T16:02:19.449Z,1.75
2019-04-27T16:04:53.164Z,1.62
2019-04-27T16:07:25.236Z,1.60
2019-04-27T16:09:54.348Z,1.70
2019-04-27T16:12:22.630Z,2.02
2019-04-27T16:14:51.918Z,1.70
2019-04-27T16:17:21.174Z,1.42
2019-04-27T16:19:50.674Z,1.52
2019-04-27T16:22:22.711Z,1.40
2019-04-27T16:24:53.529Z,1.47
2019-04-27T16:27:25.901Z,1.55
2019-04-27T16:29:53.356Z,1.92
2019-04-27T16:32:22.978Z,1.50
2019-04-27T16:34:52.242Z,1.52
2019-04-27T16:37:23.142Z,1.70
2019-04-27T16:39:52.452Z,4.37
2019-04-27T16:42:21.706Z,2.58
2019-04-27T16:44:53.183Z,2.08
2019-04-27T16:47:24.560Z,1.52
2019-04-27T16:49:53.199Z,1.75
2019-04-27T16:52:22.529Z,1.92
2019-04-27T16:54:56.946Z,1.65
2019-04-27T16:57:24.619Z,2.05
2019-04-27T17:07:46.519Z,2.50
2019-04-27T17:10:16.404Z,3.15
2019-04-27T17:12:48.670Z,3.20
2019-04-27T17:15:36.259Z,2.02
2019-04-27T17:18:24.383Z,2.35
2019-04-27T17:21:02.697Z,2.33
2019-04-27T17:23:31.381Z,1.87
2019-04-27T17:26:09.313Z,1.20
2019-04-27T17:28:37.462Z,2.30
2019-04-27T17:31:05.194Z,0.98
2019-04-27T17:33:39.006Z,0.72
2019-04-27T17:36:12.167Z,0.90
2019-04-27T17:38:42.606Z,1.12
2019-04-27T17:41:12.700Z,1.07
2019-04-27T17:43:42.715Z,1.20
2019-04-27T17:46:13.156Z,1.20
2019-04-27T17:48:42.543Z,1.60
2019-04-27T17:51:12.037Z,0.90
2019-04-27T17:53:41.315Z,1.20
2019-04-27T17:56:10.580Z,1.37
2019-04-27T17:58:40.936Z,1.20
2019-04-27T18:01:13.914Z,1.55
2019-04-27T18:03:41.895Z,1.30
2019-04-27T18:06:11.154Z,1.10
2019-04-27T18:08:40.481Z,1.30
2019-04-27T18:11:09.762Z,1.20
2019-04-27T18:13:42.034Z,1.52
2019-04-27T18:16:10.254Z,1.47
2019-04-27T18:18:48.669Z,1.32
2019-04-27T18:21:19.783Z,1.77
2019-04-27T18:23:55.265Z,2.20
2019-04-27T18:26:24.604Z,1.50
2019-04-27T18:28:54.194Z,1.60
2019-04-27T18:31:23.475Z,1.70
2019-04-27T18:33:52.807Z,1.92
2019-04-27T18:36:22.142Z,1.98
2019-04-27T18:38:51.391Z,1.80
2019-04-27T18:41:20.884Z,2.00
2019-04-27T18:43:52.143Z,1.95
2019-04-27T18:46:24.493Z,2.58
2019-04-27T18:48:54.089Z,2.40
2019-04-27T18:51:31.035Z,2.70
2019-04-27T18:54:03.584Z,2.20
2019-04-27T18:56:33.496Z,2.65
2019-04-27T18:59:03.133Z,1.92
2019-04-27T19:01:32.460Z,2.00
2019-04-27T19:04:01.719Z,2.50
2019-04-27T19:06:30.979Z,2.10
2019-04-27T19:09:00.239Z,1.98
2019-04-27T19:11:29.498Z,2.10
2019-04-27T19:13:59.120Z,2.55
2019-04-27T19:16:29.219Z,2.10
2019-04-27T19:18:58.599Z,1.60
2019-04-27T19:21:28.831Z,2.00
2019-04-27T19:23:58.554Z,1.90
2019-04-27T19:26:29.559Z,1.67
2019-04-27T19:29:09.127Z,1.90
2019-04-27T19:31:40.018Z,1.67
2019-04-27T19:34:10.253Z,1.60
2019-04-27T19:36:39.511Z,1.67
2019-04-27T19:39:10.011Z,1.85
2019-04-27T19:41:39.535Z,2.02
2019-04-27T19:44:10.223Z,1.70
2019-04-27T19:46:40.274Z,1.92
2019-04-27T19:49:09.671Z,2.05
2019-04-27T19:51:39.297Z,2.20
2019-04-27T19:54:09.727Z,2.12
2019-04-27T19:56:38.989Z,2.30
2019-04-27T19:59:09.883Z,2.20
2019-04-27T20:01:48.125Z,1.87
2019-04-27T20:04:22.166Z,1.95
2019-04-27T20:06:51.430Z,2.10
2019-04-27T20:09:25.002Z,1.90
2019-04-27T20:11:54.279Z,2.52
2019-04-27T20:14:23.761Z,2.50
2019-04-27T20:16:53.014Z,2.40
2019-04-27T20:19:22.282Z,2.67
2019-04-27T20:21:51.548Z,2.60
2019-04-27T20:24:22.737Z,2.40
2019-04-27T20:26:51.770Z,2.58
2019-04-27T20:29:21.761Z,2.90
2019-04-27T20:31:51.278Z,2.80
2019-04-27T20:34:20.933Z,2.85
2019-04-27T20:36:52.894Z,3.10
2019-04-27T20:39:22.192Z,3.00
2019-04-27T20:41:51.519Z,2.80
2019-04-27T20:44:21.115Z,2.52
2019-04-27T20:46:51.387Z,2.15
2019-04-27T20:49:21.011Z,2.95
2019-04-27T20:51:55.815Z,2.42
2019-04-27T20:54:25.067Z,2.62
2019-04-27T20:56:57.196Z,3.47
2019-04-27T20:59:25.275Z,2.60
2019-04-27T21:01:54.535Z,2.15
2019-04-27T21:04:25.476Z,2.25
2019-04-27T21:06:56.374Z,2.02
2019-04-27T21:09:25.666Z,1.77
2019-04-27T21:11:54.926Z,2.20
2019-04-27T21:14:24.207Z,1.72
2019-04-27T21:16:53.467Z,2.27
2019-04-27T21:19:22.730Z,2.20
2019-04-27T21:21:52.212Z,2.22
2019-04-27T21:24:22.829Z,2.70
2019-04-27T21:26:53.302Z,2.02
2019-04-27T21:29:22.567Z,1.57
2019-04-27T21:31:52.100Z,2.22
2019-04-27T21:34:21.389Z,2.10
2019-04-27T21:36:51.115Z,1.82
2019-04-27T21:39:21.700Z,2.08
2019-04-27T21:41:51.663Z,1.95
2019-04-27T21:44:21.775Z,2.47
2019-04-27T21:46:51.859Z,2.27
2019-04-27T21:49:22.741Z,1.92
2019-04-27T21:52:02.551Z,2.47
2019-04-27T21:54:33.530Z,2.55
2019-04-27T21:57:02.947Z,2.33
2019-04-27T21:59:32.206Z,1.90
2019-04-27T22:02:03.178Z,2.22
2019-04-27T22:04:32.503Z,2.02
2019-04-27T22:07:02.057Z,2.87
2019-04-27T22:09:31.319Z,2.15
2019-04-27T22:12:02.521Z,1.90
2019-04-27T22:14:31.530Z,2.40
2019-04-27T22:17:00.939Z,1.90
2019-04-27T22:19:31.095Z,2.10
2019-04-27T22:22:02.143Z,1.90
2019-04-27T22:24:33.042Z,2.10
2019-04-27T22:27:02.299Z,1.92
2019-04-27T22:29:32.098Z,2.25
2019-04-27T22:32:01.899Z,2.33
2019-04-27T22:34:31.334Z,2.05
2019-04-27T22:37:02.699Z,2.15
2019-04-27T22:39:36.522Z,2.95
2019-04-27T22:42:07.426Z,2.40
2019-04-27T22:44:38.323Z,2.05
2019-04-27T22:47:07.595Z,2.55
2019-04-27T22:49:36.858Z,2.33
2019-04-27T22:52:06.134Z,2.40
2019-04-27T22:54:35.623Z,2.20
2019-04-27T22:57:06.517Z,2.47
2019-04-27T22:59:37.414Z,2.50
2019-04-27T23:02:11.566Z,2.47
2019-04-27T23:04:48.263Z,2.45
2019-04-27T23:07:17.529Z,2.70
2019-04-27T23:09:46.785Z,2.20
2019-04-27T23:12:16.116Z,2.80
2019-04-27T23:14:45.376Z,2.75
2019-04-27T23:17:32.714Z,2.50
2019-04-27T23:20:01.975Z,2.60
2019-04-27T23:22:31.579Z,2.77
2019-04-27T23:25:01.250Z,2.77
2019-04-27T23:27:31.816Z,2.35
2019-04-27T23:30:01.556Z,2.92
2019-04-27T23:32:32.599Z,2.47
2019-04-27T23:35:01.864Z,2.47
2019-04-27T23:37:31.190Z,2.52
2019-04-27T23:40:00.599Z,2.58
2019-04-27T23:42:31.661Z,2.92
2019-04-27T23:45:01.203Z,3.12
2019-04-27T23:47:31.444Z,3.00
2019-04-27T23:50:00.920Z,2.98
2019-04-27T23:52:50.615Z,3.40
2019-04-27T23:55:22.151Z,2.55
2019-04-27T23:57:51.410Z,2.70
